createdAt,value
2018-08-23T00:00:44.877Z,27.77
2018-08-23T00:03:19.199Z,27.72
2018-08-23T00:05:52.631Z,27.70
2018-08-23T00:08:23.025Z,27.68
2018-08-23T00:10:53.054Z,27.65
2018-08-23T00:13:22.666Z,27.63
2018-08-23T00:15:52.087Z,27.63
2018-08-23T00:18:21.233Z,27.61
2018-08-23T00:20:50.740Z,27.60
2018-08-23T00:23:19.785Z,27.59
2018-08-23T00:25:49.032Z,27.58
2018-08-23T00:28:18.750Z,27.57
2018-08-23T00:30:48.168Z,27.56
2018-08-23T00:33:17.498Z,27.54
2018-08-23T00:35:46.666Z,27.53
2018-08-23T00:38:15.602Z,27.51
2018-08-23T00:40:45.684Z,27.51
2018-08-23T00:43:14.721Z,27.50
2018-08-23T00:45:44.115Z,27.49
2018-08-23T00:48:13.204Z,27.48
2018-08-23T00:50:50.164Z,27.47
2018-08-23T00:53:19.756Z,27.46
2018-08-23T00:55:48.845Z,27.45
2018-08-23T00:58:17.795Z,27.45
2018-08-23T01:00:55.223Z,27.45
2018-08-23T01:03:24.417Z,27.44
2018-08-23T01:05:53.597Z,27.44
2018-08-23T01:08:28.677Z,27.44
2018-08-23T01:10:57.652Z,27.42
2018-08-23T01:13:26.894Z,27.43
2018-08-23T01:15:56.095Z,27.41
2018-08-23T01:18:25.631Z,27.40
2018-08-23T01:20:54.710Z,27.37
2018-08-23T01:23:23.986Z,27.36
2018-08-23T01:25:53.579Z,27.34
2018-08-23T01:28:23.019Z,27.34
2018-08-23T01:30:52.771Z,27.34
2018-08-23T01:33:22.590Z,27.34
2018-08-23T01:35:52.536Z,27.32
2018-08-23T01:38:21.867Z,27.32
2018-08-23T01:40:58.640Z,27.31
2018-08-23T01:43:27.791Z,27.30
2018-08-23T01:45:56.843Z,27.30
2018-08-23T01:48:25.884Z,27.29
2018-08-23T01:50:55.011Z,27.27
2018-08-23T01:53:28.245Z,27.28
2018-08-23T01:55:58.183Z,27.27
2018-08-23T01:58:27.135Z,27.26
2018-08-23T02:01:28.264Z,27.25
2018-08-23T02:03:57.405Z,27.22
2018-08-23T02:06:31.517Z,27.20
2018-08-23T02:09:00.602Z,27.16
2018-08-23T02:11:29.777Z,27.15
2018-08-23T02:13:59.024Z,27.12
2018-08-23T02:16:32.426Z,27.09
2018-08-23T02:19:01.660Z,27.05
2018-08-23T02:21:31.106Z,27.01
2018-08-23T02:24:00.097Z,26.99
2018-08-23T02:26:29.269Z,26.95
2018-08-23T02:28:58.277Z,26.93
2018-08-23T02:31:33.442Z,26.92
2018-08-23T02:34:02.516Z,26.90
2018-08-23T02:36:31.706Z,26.89
2018-08-23T02:39:03.161Z,26.81
2018-08-23T02:41:32.528Z,26.85
2018-08-23T02:44:01.850Z,26.83
2018-08-23T02:46:32.652Z,26.81
2018-08-23T02:49:01.994Z,26.80
2018-08-23T02:51:52.943Z,26.79
2018-08-23T02:54:21.942Z,26.75
2018-08-23T02:56:55.229Z,26.74
2018-08-23T02:59:24.505Z,26.71
2018-08-23T03:01:54.511Z,26.70
2018-08-23T03:04:30.320Z,26.66
2018-08-23T03:07:01.653Z,26.63
2018-08-23T03:09:34.773Z,26.58
2018-08-23T03:12:08.870Z,26.55
2018-08-23T03:14:38.351Z,26.50
2018-08-23T03:20:08.302Z,26.38
2018-08-23T03:22:38.023Z,26.32
2018-08-23T03:25:09.877Z,26.29
2018-08-23T03:27:38.970Z,26.25
2018-08-23T03:30:09.212Z,26.19
2018-08-23T03:32:38.376Z,26.13
2018-08-23T03:35:07.749Z,26.08
2018-08-23T03:37:36.868Z,26.03
2018-08-23T03:40:06.480Z,25.97
2018-08-23T03:42:36.559Z,25.92
2018-08-23T03:45:06.072Z,25.88
2018-08-23T03:47:40.715Z,25.83
2018-08-23T03:50:10.732Z,25.78
2018-08-23T03:52:40.808Z,25.75
2018-08-23T03:55:11.128Z,25.71
2018-08-23T03:57:45.353Z,25.68
2018-08-23T04:00:15.059Z,25.65
2018-08-23T04:02:44.087Z,25.63
2018-08-23T04:05:19.003Z,25.60
2018-08-23T04:07:48.240Z,25.57
2018-08-23T04:10:17.406Z,25.54
2018-08-23T04:12:47.111Z,25.54
2018-08-23T04:15:24.943Z,25.53
2018-08-23T04:17:54.717Z,25.54
2018-08-23T04:20:24.132Z,25.54
2018-08-23T04:22:53.095Z,25.53
2018-08-23T04:25:22.359Z,25.54
2018-08-23T04:27:51.462Z,25.55
2018-08-23T04:30:20.655Z,25.54
2018-08-23T04:32:50.432Z,25.54
2018-08-23T04:35:34.841Z,25.54
2018-08-23T04:38:03.958Z,25.55
2018-08-23T04:40:32.939Z,25.55
2018-08-23T04:43:02.506Z,25.56
2018-08-23T04:45:33.778Z,25.58
2018-08-23T04:48:06.848Z,25.57
2018-08-23T04:50:36.227Z,25.56
2018-08-23T04:53:05.234Z,25.58
2018-08-23T04:55:34.328Z,25.58
2018-08-23T04:58:04.832Z,25.60
2018-08-23T05:00:34.138Z,25.61
2018-08-23T05:03:03.038Z,25.45
2018-08-23T05:05:32.645Z,25.64
2018-08-23T05:08:01.963Z,25.67
2018-08-23T05:10:30.934Z,25.69
2018-08-23T05:13:00.179Z,25.72
2018-08-23T05:15:29.234Z,25.73
2018-08-23T05:17:58.536Z,25.77
2018-08-23T05:20:27.687Z,25.79
2018-08-23T05:23:01.817Z,25.81
2018-08-23T05:25:31.591Z,25.82
2018-08-23T05:28:19.018Z,25.83
2018-08-23T05:30:48.564Z,25.82
2018-08-23T05:33:24.140Z,25.82
2018-08-23T05:35:53.619Z,25.82
2018-08-23T05:38:22.685Z,25.83
2018-08-23T05:40:56.647Z,25.84
2018-08-23T05:43:25.757Z,25.87
2018-08-23T05:45:55.935Z,25.89
2018-08-23T05:48:32.249Z,25.91
2018-08-23T05:51:06.750Z,25.94
2018-08-23T05:53:40.716Z,25.96
2018-08-23T05:56:10.176Z,26.00
2018-08-23T05:58:39.386Z,26.04
2018-08-23T06:01:09.096Z,26.09
2018-08-23T06:03:39.343Z,26.14
2018-08-23T06:06:09.522Z,26.19
2018-08-23T06:08:42.025Z,26.23
2018-08-23T06:11:12.146Z,26.29
2018-08-23T06:13:41.304Z,26.33
2018-08-23T06:16:10.491Z,26.37
2018-08-23T06:18:39.550Z,26.41
2018-08-23T06:21:08.940Z,26.43
2018-08-23T06:28:56.487Z,26.44
2018-08-23T06:31:25.856Z,26.44
2018-08-23T06:33:56.789Z,26.45
2018-08-23T06:36:26.518Z,26.51
2018-08-23T06:38:59.640Z,26.56
2018-08-23T06:41:29.278Z,26.60
2018-08-23T06:43:58.337Z,26.62
2018-08-23T06:46:27.347Z,26.67
2018-08-23T06:48:56.626Z,26.70
2018-08-23T06:51:26.308Z,26.74
2018-08-23T06:53:59.684Z,26.79
2018-08-23T06:56:29.061Z,26.84
2018-08-23T06:58:58.595Z,26.89
2018-08-23T07:01:39.486Z,26.90
2018-08-23T07:04:10.702Z,26.92
2018-08-23T07:06:40.027Z,26.93
2018-08-23T07:09:12.408Z,26.96
2018-08-23T07:11:41.784Z,26.99
2018-08-23T07:14:12.133Z,27.02
2018-08-23T07:16:42.521Z,27.04
2018-08-23T07:19:24.251Z,27.06
2018-08-23T07:21:54.737Z,27.09
2018-08-23T07:24:37.625Z,27.15
2018-08-23T07:27:09.034Z,27.18
2018-08-23T07:29:38.147Z,27.21
2018-08-23T07:32:10.538Z,27.25
2018-08-23T07:34:39.549Z,27.28
2018-08-23T07:37:14.142Z,27.34
2018-08-23T07:39:47.481Z,27.36
2018-08-23T07:42:16.735Z,27.39
2018-08-23T07:44:46.012Z,27.41
2018-08-23T07:47:15.189Z,27.45
2018-08-23T07:49:44.283Z,27.49
2018-08-23T07:52:13.729Z,27.49
2018-08-23T07:54:42.867Z,27.54
2018-08-23T07:57:12.051Z,27.56
2018-08-23T07:59:41.302Z,27.58
2018-08-23T08:02:12.479Z,27.62
2018-08-23T08:04:41.515Z,27.69
2018-08-23T08:07:14.066Z,27.73
2018-08-23T08:09:43.068Z,27.80
2018-08-23T08:12:17.346Z,27.85
2018-08-23T08:14:46.365Z,27.92
2018-08-23T08:17:21.140Z,28.00
2018-08-23T08:19:57.240Z,28.07
2018-08-23T08:22:35.516Z,28.16
2018-08-23T08:25:20.322Z,28.22
2018-08-23T08:27:50.540Z,28.30
2018-08-23T08:30:28.204Z,28.37
2018-08-23T08:32:57.250Z,28.47
2018-08-23T08:35:26.535Z,28.54
2018-08-23T08:37:55.668Z,28.63
2018-08-23T08:40:25.850Z,28.70
2018-08-23T08:42:55.133Z,28.79
2018-08-23T08:45:27.014Z,28.88
2018-08-23T08:50:46.190Z,29.05
2018-08-23T08:53:16.124Z,29.17
2018-08-23T08:55:45.925Z,29.29
2018-08-23T08:58:15.699Z,29.39
2018-08-23T09:00:50.021Z,29.51
2018-08-23T09:03:20.652Z,29.59
2018-08-23T09:05:49.706Z,29.69
2018-08-23T09:08:18.835Z,29.79
2018-08-23T09:10:47.731Z,29.89
2018-08-23T09:13:16.796Z,29.98
2018-08-23T09:15:50.439Z,30.08
2018-08-23T09:18:24.297Z,30.20
2018-08-23T09:20:56.105Z,30.29
2018-08-23T09:23:28.806Z,30.39
2018-08-23T09:25:58.482Z,30.50
2018-08-23T09:28:28.010Z,30.62
2018-08-23T09:30:57.704Z,30.70
2018-08-23T09:33:28.743Z,30.81
2018-08-23T09:35:57.895Z,30.92
2018-08-23T09:38:27.078Z,31.03
2018-08-23T09:40:56.529Z,31.12
2018-08-23T09:43:26.052Z,31.19
2018-08-23T09:45:55.345Z,31.27
2018-08-23T09:48:24.509Z,31.37
2018-08-23T09:50:53.930Z,31.45
2018-08-23T09:53:23.875Z,31.52
2018-08-23T09:55:53.418Z,31.60
2018-08-23T09:58:27.995Z,31.69
2018-08-23T10:01:02.226Z,31.79
2018-08-23T10:03:36.437Z,31.88
2018-08-23T10:06:10.705Z,31.98
2018-08-23T10:08:45.473Z,32.07
2018-08-23T10:11:20.300Z,32.13
2018-08-23T10:13:54.679Z,32.21
2018-08-23T10:16:28.962Z,32.31
2018-08-23T10:19:00.316Z,32.38
2018-08-23T10:21:34.611Z,32.46
2018-08-23T10:24:15.474Z,32.56
2018-08-23T10:26:45.045Z,32.65
2018-08-23T10:29:21.130Z,32.72
2018-08-23T10:31:50.567Z,32.78
2018-08-23T10:34:19.686Z,32.86
2018-08-23T10:36:48.848Z,32.93
2018-08-23T10:39:18.136Z,33.03
2018-08-23T10:41:47.514Z,33.12
2018-08-23T10:44:16.730Z,33.23
2018-08-23T10:46:51.343Z,33.31
2018-08-23T10:49:20.457Z,33.38
2018-08-23T10:51:49.654Z,33.44
2018-08-23T10:54:18.768Z,33.52
2018-08-23T10:56:48.301Z,33.60
2018-08-23T10:59:17.522Z,33.70
2018-08-23T11:01:46.370Z,33.73
2018-08-23T11:04:15.842Z,33.84
2018-08-23T11:06:50.058Z,33.90
2018-08-23T11:09:24.486Z,33.97
2018-08-23T11:11:53.722Z,34.01
2018-08-23T11:14:27.990Z,34.07
2018-08-23T11:17:02.733Z,34.14
2018-08-23T11:19:36.973Z,34.21
2018-08-23T11:22:06.155Z,34.30
2018-08-23T11:24:35.353Z,34.39
2018-08-23T11:27:04.942Z,34.46
2018-08-23T11:29:34.232Z,34.52
2018-08-23T11:32:07.304Z,34.58
2018-08-23T11:34:36.998Z,34.64
2018-08-23T11:37:06.334Z,34.67
2018-08-23T11:39:35.518Z,34.71
2018-08-23T11:42:04.798Z,34.77
2018-08-23T11:44:33.997Z,34.84
2018-08-23T11:47:03.184Z,34.87
2018-08-23T11:49:32.927Z,34.92
2018-08-23T11:52:02.181Z,34.95
2018-08-23T11:54:31.158Z,34.97
2018-08-23T11:57:00.458Z,35.02
2018-08-23T11:59:29.761Z,35.06
2018-08-23T12:01:58.923Z,35.10
2018-08-23T12:04:28.156Z,35.12
2018-08-23T12:06:57.338Z,35.13
2018-08-23T12:09:32.902Z,35.15
2018-08-23T12:12:03.662Z,35.17
2018-08-23T12:14:33.588Z,35.22
2018-08-23T12:17:03.058Z,35.25
2018-08-23T12:19:32.261Z,35.28
2018-08-23T12:22:02.240Z,35.32
2018-08-23T12:24:31.213Z,35.37
2018-08-23T12:27:00.488Z,35.39
2018-08-23T12:29:29.797Z,35.40
2018-08-23T12:31:59.217Z,35.44
2018-08-23T12:34:32.630Z,35.48
2018-08-23T12:37:06.973Z,35.53
2018-08-23T12:39:41.243Z,35.55
2018-08-23T12:42:15.517Z,35.61
2018-08-23T12:44:50.127Z,35.66
2018-08-23T12:47:19.382Z,35.73
2018-08-23T12:49:49.473Z,35.78
2018-08-23T12:52:19.756Z,35.84
2018-08-23T12:54:48.848Z,35.91
2018-08-23T12:57:18.178Z,35.98
2018-08-23T12:59:47.155Z,36.05
2018-08-23T13:02:16.507Z,36.13
2018-08-23T13:04:45.690Z,36.19
2018-08-23T13:07:14.750Z,36.25
2018-08-23T13:09:44.207Z,36.30
2018-08-23T13:12:13.478Z,36.33
2018-08-23T13:14:42.741Z,36.30
2018-08-23T13:17:11.972Z,36.26
2018-08-23T13:19:41.486Z,36.26
2018-08-23T13:22:10.936Z,36.29
2018-08-23T13:24:45.422Z,36.32
2018-08-23T13:27:14.830Z,36.31
2018-08-23T13:29:44.086Z,36.34
2018-08-23T13:32:13.431Z,36.35
2018-08-23T13:34:42.625Z,36.38
2018-08-23T13:37:11.711Z,36.43
2018-08-23T13:39:40.820Z,36.46
2018-08-23T13:42:10.050Z,36.48
2018-08-23T13:44:39.084Z,36.49
2018-08-23T13:47:08.147Z,36.48
2018-08-23T13:49:37.289Z,36.49
2018-08-23T13:52:06.693Z,36.51
2018-08-23T13:54:36.101Z,36.52
2018-08-23T13:57:05.320Z,36.53
2018-08-23T13:59:34.815Z,36.56
2018-08-23T14:02:03.903Z,36.58
2018-08-23T14:04:33.197Z,36.59
2018-08-23T14:07:02.944Z,36.64
2018-08-23T14:09:31.900Z,36.71
2018-08-23T14:12:00.924Z,36.74
2018-08-23T14:14:30.782Z,36.76
2018-08-23T14:17:00.307Z,36.81
2018-08-23T14:19:29.203Z,36.87
2018-08-23T14:21:58.316Z,36.95
2018-08-23T14:24:27.307Z,37.02
2018-08-23T14:26:56.675Z,37.08
2018-08-23T14:29:25.796Z,37.11
2018-08-23T14:31:54.975Z,37.16
2018-08-23T14:34:24.101Z,37.20
2018-08-23T14:36:54.794Z,37.19
2018-08-23T14:39:23.938Z,37.19
2018-08-23T14:41:58.252Z,37.21
2018-08-23T14:44:27.743Z,37.21
2018-08-23T14:47:01.931Z,37.17
2018-08-23T14:49:35.012Z,37.10
2018-08-23T14:52:05.455Z,37.03
2018-08-23T14:54:41.488Z,36.96
2018-08-23T14:57:15.937Z,36.91
2018-08-23T14:59:45.431Z,36.85
2018-08-23T15:02:14.698Z,36.80
2018-08-23T15:04:46.702Z,36.75
2018-08-23T15:07:16.343Z,36.68
2018-08-23T15:09:45.850Z,36.63
2018-08-23T15:12:14.949Z,36.58
2018-08-23T15:14:44.089Z,36.55
2018-08-23T15:17:13.286Z,36.52
2018-08-23T15:19:48.732Z,36.52
2018-08-23T15:22:17.924Z,36.51
2018-08-23T15:24:47.095Z,36.49
2018-08-23T15:27:16.072Z,36.46
2018-08-23T15:29:45.361Z,36.44
2018-08-23T15:32:14.477Z,36.42
2018-08-23T15:34:43.890Z,36.38
2018-08-23T15:37:13.155Z,36.35
2018-08-23T15:39:42.282Z,36.33
2018-08-23T15:42:11.306Z,36.31
2018-08-23T15:44:40.384Z,36.27
2018-08-23T15:47:09.415Z,36.26
2018-08-23T15:49:38.662Z,36.25
2018-08-23T15:52:08.373Z,36.23
2018-08-23T15:54:37.584Z,36.21
2018-08-23T15:57:06.834Z,36.15
2018-08-23T15:59:36.221Z,36.11
2018-08-23T16:02:05.795Z,36.08
2018-08-23T16:04:41.235Z,36.05
2018-08-23T16:07:10.531Z,36.03
2018-08-23T16:09:39.974Z,36.00
2018-08-23T16:12:09.242Z,35.98
2018-08-23T16:14:38.328Z,35.95
2018-08-23T16:17:12.606Z,35.93
2018-08-23T16:19:47.062Z,35.91
2018-08-23T16:22:16.480Z,35.89
2018-08-23T16:24:45.884Z,35.86
2018-08-23T16:27:14.929Z,35.82
2018-08-23T16:29:49.456Z,35.79
2018-08-23T16:32:23.770Z,35.78
2018-08-23T16:34:53.570Z,35.76
2018-08-23T16:37:22.777Z,35.73
2018-08-23T16:39:51.931Z,35.69
2018-08-23T16:42:21.195Z,35.64
2018-08-23T16:44:50.436Z,35.61
2018-08-23T16:47:19.402Z,35.58
2018-08-23T16:49:48.536Z,35.56
2018-08-23T16:52:17.875Z,35.54
2018-08-23T16:54:47.495Z,35.53
2018-08-23T16:57:16.789Z,35.50
2018-08-23T16:59:45.973Z,35.48
2018-08-23T17:02:15.999Z,35.47
2018-08-23T17:04:46.675Z,35.43
2018-08-23T17:07:16.887Z,35.40
2018-08-23T17:09:46.769Z,35.36
2018-08-23T17:12:15.719Z,35.35
2018-08-23T17:14:45.268Z,35.31
2018-08-23T17:17:19.556Z,35.26
2018-08-23T17:19:48.607Z,35.20
2018-08-23T17:22:17.813Z,35.12
2018-08-23T17:24:46.831Z,35.02
2018-08-23T17:27:16.256Z,34.92
2018-08-23T17:29:45.703Z,34.82
2018-08-23T17:32:14.652Z,34.72
2018-08-23T17:34:44.097Z,34.62
2018-08-23T17:37:13.191Z,34.52
2018-08-23T17:39:42.236Z,34.42
2018-08-23T17:42:11.862Z,34.32
2018-08-23T17:44:41.615Z,34.21
2018-08-23T17:47:10.668Z,34.11
2018-08-23T17:49:39.900Z,34.00
2018-08-23T17:52:09.054Z,33.92
2018-08-23T17:54:38.336Z,33.81
2018-08-23T17:57:07.445Z,33.73
2018-08-23T17:59:36.416Z,33.64
2018-08-23T18:02:05.622Z,33.54
2018-08-23T18:04:35.520Z,33.45
2018-08-23T18:07:04.533Z,33.38
2018-08-23T18:09:33.718Z,33.29
2018-08-23T18:12:02.965Z,33.20
2018-08-23T18:14:34.907Z,33.13
2018-08-23T18:17:04.012Z,33.05
2018-08-23T18:19:33.395Z,32.99
2018-08-23T18:22:02.489Z,32.92
2018-08-23T18:24:31.818Z,32.86
2018-08-23T18:27:00.983Z,32.80
2018-08-23T18:29:30.243Z,32.75
2018-08-23T18:31:59.389Z,32.68
2018-08-23T18:34:28.910Z,32.64
2018-08-23T18:36:58.275Z,32.59
2018-08-23T18:39:27.690Z,32.55
2018-08-23T18:41:56.803Z,32.51
2018-08-23T18:44:26.048Z,32.46
2018-08-23T18:46:55.425Z,32.42
2018-08-23T18:49:25.376Z,32.39
2018-08-23T18:51:54.374Z,32.35
2018-08-23T18:54:23.772Z,32.31
2018-08-23T18:56:53.018Z,32.25
2018-08-23T18:59:22.136Z,32.21
2018-08-23T19:01:51.334Z,32.17
2018-08-23T19:04:20.877Z,32.12
2018-08-23T19:06:50.247Z,32.07
2018-08-23T19:09:19.662Z,32.02
2018-08-23T19:11:48.688Z,31.95
2018-08-23T19:14:17.887Z,31.89
2018-08-23T19:16:51.979Z,31.84
2018-08-23T19:19:21.242Z,31.79
2018-08-23T19:21:50.995Z,31.75
2018-08-23T19:24:20.063Z,31.71
2018-08-23T19:26:49.301Z,31.68
2018-08-23T19:29:18.500Z,31.65
2018-08-23T19:31:48.469Z,31.60
2018-08-23T19:34:17.581Z,31.57
2018-08-23T19:36:46.672Z,31.51
2018-08-23T19:39:15.859Z,31.46
2018-08-23T19:41:45.420Z,31.40
2018-08-23T19:44:14.630Z,31.34
2018-08-23T19:46:48.757Z,31.28
2018-08-23T19:49:23.100Z,31.23
2018-08-23T19:51:52.155Z,31.17
2018-08-23T19:54:21.752Z,31.11
2018-08-23T19:56:50.756Z,31.05
2018-08-23T19:59:20.061Z,30.97
2018-08-23T20:01:49.188Z,30.91
2018-08-23T20:04:18.268Z,30.85
2018-08-23T20:06:47.515Z,30.80
2018-08-23T20:09:17.008Z,30.73
2018-08-23T20:11:46.149Z,30.68
2018-08-23T20:14:15.535Z,30.62
2018-08-23T20:16:44.452Z,30.57
2018-08-23T20:19:13.399Z,30.52
2018-08-23T20:21:42.407Z,30.48
2018-08-23T20:24:11.478Z,30.42
2018-08-23T20:26:40.545Z,30.37
2018-08-23T20:29:10.680Z,30.33
2018-08-23T20:31:40.062Z,30.28
2018-08-23T20:34:09.423Z,30.24
2018-08-23T20:36:38.550Z,30.20
2018-08-23T20:39:12.296Z,30.15
2018-08-23T20:41:41.696Z,30.10
2018-08-23T20:44:11.213Z,30.05
2018-08-23T20:46:43.746Z,30.01
2018-08-23T20:49:12.878Z,29.96
2018-08-23T20:51:41.824Z,29.92
2018-08-23T20:54:11.254Z,29.89
2018-08-23T20:56:40.356Z,29.85
2018-08-23T20:59:09.658Z,29.81
2018-08-23T21:01:38.674Z,29.77
2018-08-23T21:04:07.849Z,29.71
2018-08-23T21:06:37.311Z,29.66
2018-08-23T21:09:09.280Z,29.62
2018-08-23T21:11:38.697Z,29.57
2018-08-23T21:14:07.947Z,29.54
2018-08-23T21:16:36.898Z,29.50
2018-08-23T21:19:06.113Z,29.47
2018-08-23T21:21:35.079Z,29.45
2018-08-23T21:24:03.983Z,29.43
2018-08-23T21:26:33.621Z,29.42
2018-08-23T21:29:02.787Z,29.41
2018-08-23T21:31:32.314Z,29.39
2018-08-23T21:34:01.719Z,29.39
2018-08-23T21:36:31.019Z,29.38
2018-08-23T21:39:00.583Z,29.35
2018-08-23T21:41:29.699Z,29.33
2018-08-23T21:43:58.837Z,29.32
2018-08-23T21:46:28.108Z,29.34
2018-08-23T21:48:57.934Z,29.33
2018-08-23T21:51:29.575Z,29.31
2018-08-23T21:53:59.071Z,29.30
2018-08-23T21:56:29.635Z,29.30
2018-08-23T21:58:58.622Z,29.28
2018-08-23T22:01:27.911Z,29.27
2018-08-23T22:03:56.903Z,29.23
2018-08-23T22:06:25.877Z,29.21
2018-08-23T22:08:54.979Z,29.19
2018-08-23T22:11:24.154Z,29.16
2018-08-23T22:13:53.343Z,29.15
2018-08-23T22:16:22.762Z,29.12
2018-08-23T22:18:51.893Z,28.91
2018-08-23T22:21:21.260Z,29.06
2018-08-23T22:23:50.432Z,29.04
2018-08-23T22:26:19.576Z,29.02
2018-08-23T22:28:49.085Z,29.00
2018-08-23T22:31:18.260Z,28.98
2018-08-23T22:33:47.459Z,28.94
2018-08-23T22:36:16.511Z,28.91
2018-08-23T22:38:45.993Z,28.87
2018-08-23T22:41:15.083Z,28.82
2018-08-23T22:43:44.120Z,28.79
2018-08-23T22:46:13.298Z,28.77
2018-08-23T22:48:42.499Z,28.74
2018-08-23T22:51:11.994Z,28.71
2018-08-23T22:53:41.003Z,28.68
2018-08-23T22:56:10.404Z,28.65
2018-08-23T22:58:39.661Z,28.62
2018-08-23T23:01:09.300Z,28.56
2018-08-23T23:03:43.436Z,28.52
2018-08-23T23:06:12.955Z,28.51
2018-08-23T23:08:42.400Z,28.49
2018-08-23T23:11:11.703Z,28.49
2018-08-23T23:13:40.930Z,28.50
2018-08-23T23:16:10.245Z,28.49
2018-08-23T23:18:39.567Z,28.48
2018-08-23T23:21:09.422Z,28.50
2018-08-23T23:23:38.885Z,28.50
2018-08-23T23:26:09.074Z,28.53
2018-08-23T23:28:38.223Z,28.55
2018-08-23T23:31:07.306Z,28.57
2018-08-23T23:33:36.739Z,28.57
2018-08-23T23:36:05.790Z,28.58
2018-08-23T23:38:36.731Z,28.58
2018-08-23T23:41:06.104Z,28.58
2018-08-23T23:43:35.186Z,28.59
2018-08-23T23:46:04.230Z,28.58
2018-08-23T23:48:33.448Z,28.60
2018-08-23T23:51:02.564Z,28.60
2018-08-23T23:53:31.657Z,28.60
2018-08-23T23:56:00.681Z,28.62
2018-08-23T23:58:30.215Z,28.62
